Time;durP1;ratioP1;P1;durP2;ratioP2;P2;SDS_P1;SDS_P2;PMS_P1;PMS_P2;Temp;Humidity;BMP_temperature;BMP_pressure;BME280_temperature;BME280_humidity;BME280_pressure;Samples;Min_cycle;Max_cycle;Signal;HPM_P1;HPM_P2
2024/02/15 00:00:19;;;;;;;6.80;1.50;;;9.40;99.90;;;;;;5037461;28;20049;-63
2024/02/15 00:02:45;;;;;;;4.07;1.45;;;9.40;99.90;;;;;;5034879;28;20099;-63
2024/02/15 00:05:30;;;;;;;5.30;1.67;;;9.40;99.90;;;;;;5032593;28;20083;-63
2024/02/15 00:07:57;;;;;;;2.47;1.10;;;9.30;99.90;;;;;;5035882;28;20045;-63
2024/02/15 00:10:24;;;;;;;4.07;1.27;;;9.10;99.90;;;;;;5036425;28;20124;-63
2024/02/15 00:12:51;;;;;;;2.95;1.30;;;8.90;99.90;;;;;;5036951;28;20576;-63
2024/02/15 00:15:19;;;;;;;4.10;1.38;;;8.80;99.90;;;;;;5034690;28;20060;-63
2024/02/15 00:17:48;;;;;;;4.15;1.10;;;8.70;99.90;;;;;;5038392;28;20049;-63
2024/02/15 00:20:17;;;;;;;3.67;1.40;;;8.60;99.90;;;;;;5037093;28;20076;-63
2024/02/15 00:22:44;;;;;;;4.72;1.70;;;8.50;99.90;;;;;;5035181;28;20060;-63
2024/02/15 00:25:13;;;;;;;3.15;1.67;;;8.40;99.90;;;;;;5030299;28;20052;-63
2024/02/15 00:27:40;;;;;;;5.63;1.38;;;8.40;99.90;;;;;;5034494;28;20057;-63
2024/02/15 00:30:09;;;;;;;4.32;1.55;;;8.30;99.90;;;;;;5033513;28;20127;-63
2024/02/15 00:32:36;;;;;;;4.07;1.33;;;8.30;99.90;;;;;;5027946;28;20129;-63
2024/02/15 00:35:09;;;;;;;4.55;1.60;;;8.20;99.90;;;;;;5028616;28;20050;-63
2024/02/15 00:37:37;;;;;;;4.43;1.30;;;8.20;99.90;;;;;;5028242;28;20445;-63
2024/02/15 00:40:05;;;;;;;5.53;1.25;;;8.20;99.90;;;;;;5032021;28;20091;-63
2024/02/15 00:42:32;;;;;;;5.82;1.50;;;8.10;99.90;;;;;;5032069;28;20516;-63
2024/02/15 00:44:59;;;;;;;5.15;1.38;;;8.00;99.90;;;;;;5037045;28;20056;-63
2024/02/15 00:47:27;;;;;;;5.55;1.40;;;8.00;99.90;;;;;;5036902;28;20053;-63
2024/02/15 00:49:55;;;;;;;4.18;1.70;;;8.00;99.90;;;;;;5049711;28;20131;-63
2024/02/15 00:52:23;;;;;;;3.83;1.40;;;8.00;99.90;;;;;;5040224;28;20092;-63
2024/02/15 00:54:50;;;;;;;7.47;1.33;;;7.90;99.90;;;;;;5034591;28;20055;-63
2024/02/15 00:57:17;;;;;;;4.28;1.55;;;7.90;99.90;;;;;;5045014;28;20059;-63
2024/02/15 00:59:44;;;;;;;3.13;1.30;;;7.90;99.90;;;;;;5038254;28;20111;-63
2024/02/15 01:02:12;;;;;;;2.80;1.20;;;7.90;99.90;;;;;;5042726;28;20128;-63
2024/02/15 01:04:39;;;;;;;2.95;1.20;;;7.90;99.90;;;;;;5043168;28;20103;-63
2024/02/15 01:07:07;;;;;;;4.53;1.30;;;7.90;99.90;;;;;;5040481;28;20048;-63
2024/02/15 01:09:34;;;;;;;5.53;1.45;;;7.80;99.90;;;;;;5038193;28;20060;-64
2024/02/15 01:12:03;;;;;;;5.57;1.77;;;7.80;99.90;;;;;;5038087;28;20037;-63
2024/02/15 01:14:31;;;;;;;5.45;1.55;;;7.70;99.90;;;;;;5033861;28;20060;-63
2024/02/15 01:16:58;;;;;;;3.33;1.42;;;7.70;99.90;;;;;;5036125;28;20045;-64
2024/02/15 01:19:25;;;;;;;2.63;1.45;;;7.70;99.90;;;;;;5042508;28;20045;-63
2024/02/15 01:21:53;;;;;;;7.07;1.60;;;7.60;99.90;;;;;;5039992;28;20059;-63
2024/02/15 01:24:20;;;;;;;4.82;1.33;;;7.60;99.90;;;;;;5036605;28;20050;-63
2024/02/15 01:26:48;;;;;;;3.88;1.58;;;7.50;99.90;;;;;;5041529;28;20494;-63
2024/02/15 01:29:15;;;;;;;3.80;1.27;;;7.60;99.90;;;;;;5039600;28;20136;-63
2024/02/15 01:31:43;;;;;;;5.15;1.30;;;7.50;99.90;;;;;;5042891;28;20049;-63
2024/02/15 01:34:10;;;;;;;5.47;1.30;;;7.50;99.90;;;;;;5040082;28;20180;-63
2024/02/15 01:36:37;;;;;;;4.30;1.30;;;7.50;99.90;;;;;;5038056;28;20565;-63
2024/02/15 01:39:04;;;;;;;4.55;1.33;;;7.50;99.90;;;;;;5043429;28;20505;-63
2024/02/15 01:41:31;;;;;;;5.13;1.25;;;7.50;99.90;;;;;;5042047;28;20042;-63
2024/02/15 01:43:58;;;;;;;5.50;1.70;;;7.50;99.90;;;;;;5024202;28;20501;-63
2024/02/15 01:46:25;;;;;;;4.55;1.30;;;7.50;99.90;;;;;;5042939;28;20480;-63
2024/02/15 01:48:52;;;;;;;2.22;1.25;;;7.50;99.90;;;;;;5040571;28;20047;-63
2024/02/15 01:51:19;;;;;;;5.13;1.23;;;7.50;99.90;;;;;;5039861;28;20048;-63
2024/02/15 01:53:46;;;;;;;5.35;2.00;;;7.40;99.90;;;;;;5041290;28;20504;-63
2024/02/15 01:56:15;;;;;;;2.53;1.10;;;7.30;99.90;;;;;;5036078;28;20049;-63
2024/02/15 01:58:45;;;;;;;3.92;1.20;;;7.40;99.90;;;;;;5043888;28;20048;-63
2024/02/15 02:01:12;;;;;;;;;;;7.30;99.90;;;;;;5040389;28;20124;-63
2024/02/15 02:03:39;;;;;;;4.07;1.50;;;7.30;99.90;;;;;;5036348;28;20015;-63
2024/02/15 02:06:06;;;;;;;3.05;1.50;;;7.30;99.90;;;;;;5039600;28;20152;-63
2024/02/15 02:08:33;;;;;;;4.40;1.52;;;7.30;99.90;;;;;;5039061;28;20052;-63
2024/02/15 02:11:01;;;;;;;2.30;1.30;;;7.30;99.90;;;;;;5034777;28;20383;-63
2024/02/15 02:13:28;;;;;;;2.75;1.40;;;7.30;99.90;;;;;;5037159;28;20055;-63
2024/02/15 02:15:57;;;;;;;3.80;1.40;;;7.40;99.90;;;;;;5038488;28;20501;-63
2024/02/15 02:18:25;;;;;;;4.07;1.40;;;7.30;99.90;;;;;;5042100;28;20056;-63
2024/02/15 02:20:53;;;;;;;4.30;1.30;;;7.30;99.90;;;;;;5040132;28;20045;-63
2024/02/15 02:23:24;;;;;;;1.65;1.10;;;7.20;99.90;;;;;;5038305;28;20516;-63
2024/02/15 02:25:51;;;;;;;2.35;1.10;;;7.20;99.90;;;;;;5038967;28;20045;-63
2024/02/15 02:28:18;;;;;;;2.70;1.30;;;7.10;99.90;;;;;;5043884;28;20048;-63
2024/02/15 02:30:45;;;;;;;4.00;1.40;;;7.10;99.90;;;;;;5040447;28;20057;-63
2024/02/15 02:33:18;;;;;;;3.70;1.20;;;7.10;99.90;;;;;;5040760;28;20655;-63
2024/02/15 02:35:47;;;;;;;7.65;1.40;;;7.10;99.90;;;;;;5036090;28;20254;-63
2024/02/15 02:38:15;;;;;;;3.38;1.50;;;7.00;99.90;;;;;;5040569;28;20045;-63
2024/02/15 02:40:42;;;;;;;5.70;1.30;;;7.10;99.90;;;;;;5035196;28;20072;-63
2024/02/15 02:43:09;;;;;;;4.03;1.50;;;7.00;99.90;;;;;;5034534;28;20041;-63
2024/02/15 02:45:37;;;;;;;5.90;1.55;;;7.10;99.90;;;;;;5036119;28;20069;-63
2024/02/15 02:48:04;;;;;;;5.32;1.55;;;7.10;99.90;;;;;;5038164;28;20046;-63
2024/02/15 02:50:32;;;;;;;3.15;1.08;;;7.10;99.90;;;;;;5039297;28;20064;-63
2024/02/15 02:52:59;;;;;;;7.10;1.42;;;7.10;99.90;;;;;;5032057;28;20449;-64
2024/02/15 02:55:27;;;;;;;4.47;1.67;;;7.00;99.90;;;;;;5032965;28;20083;-64
2024/02/15 02:57:54;;;;;;;2.25;1.20;;;7.00;99.90;;;;;;5035434;28;20083;-63
2024/02/15 03:00:22;;;;;;;6.35;1.70;;;6.90;99.90;;;;;;5042316;28;20367;-63
2024/02/15 03:02:49;;;;;;;1.65;1.35;;;6.90;99.90;;;;;;5032781;28;20132;-63
2024/02/15 03:05:16;;;;;;;2.35;1.20;;;6.90;99.90;;;;;;5036065;28;20049;-63
2024/02/15 03:07:44;;;;;;;4.13;1.85;;;6.90;99.90;;;;;;5035629;28;20601;-63
2024/02/15 03:10:13;;;;;;;7.05;1.30;;;6.80;99.90;;;;;;5036227;28;20049;-63
2024/02/15 03:12:46;;;;;;;3.17;1.45;;;6.80;99.90;;;;;;5035053;28;20043;-63
2024/02/15 03:15:15;;;;;;;2.28;1.20;;;6.80;99.90;;;;;;5033921;28;20502;-63
2024/02/15 03:17:43;;;;;;;4.75;1.30;;;6.70;99.90;;;;;;5033694;28;20084;-63
2024/02/15 03:20:13;;;;;;;2.60;0.98;;;6.70;99.90;;;;;;5034408;28;20053;-63
2024/02/15 03:22:43;;;;;;;3.90;1.20;;;6.70;99.90;;;;;;5031257;28;20077;-63
2024/02/15 03:25:10;;;;;;;2.85;1.00;;;6.60;99.90;;;;;;5039209;28;20057;-63
2024/02/15 03:27:37;;;;;;;3.78;1.20;;;6.70;99.90;;;;;;5033399;28;20490;-63
2024/02/15 03:30:04;;;;;;;3.67;1.40;;;6.70;99.90;;;;;;5038186;28;20646;-63
2024/02/15 03:32:31;;;;;;;7.03;1.20;;;6.70;99.90;;;;;;5040900;28;20072;-63
2024/02/15 03:35:00;;;;;;;3.75;1.08;;;6.70;99.90;;;;;;5036677;28;20068;-63
2024/02/15 03:37:27;;;;;;;1.70;1.02;;;6.70;99.90;;;;;;5034230;28;20472;-63
2024/02/15 03:39:54;;;;;;;4.88;1.45;;;6.70;99.90;;;;;;5043820;28;20087;-63
2024/02/15 03:42:21;;;;;;;3.03;1.30;;;6.60;99.90;;;;;;5040318;28;20049;-63
2024/02/15 03:44:48;;;;;;;3.72;1.27;;;6.60;99.90;;;;;;5037464;28;20049;-63
2024/02/15 03:47:15;;;;;;;2.97;1.65;;;6.60;99.90;;;;;;5024158;28;20521;-63
2024/02/15 03:49:42;;;;;;;3.47;2.08;;;6.60;99.90;;;;;;5039239;28;20448;-63
2024/02/15 03:52:12;;;;;;;2.28;1.58;;;6.70;99.90;;;;;;5038772;28;20128;-63
2024/02/15 03:54:39;;;;;;;2.45;1.70;;;6.80;99.90;;;;;;5038818;28;20108;-63
2024/02/15 03:57:06;;;;;;;2.83;1.60;;;6.70;99.90;;;;;;5036115;28;20053;-63
2024/02/15 03:59:34;;;;;;;8.70;3.75;;;6.70;99.90;;;;;;5037593;28;20048;-63
2024/02/15 04:02:03;;;;;;;8.52;1.83;;;6.80;99.90;;;;;;5037669;28;20064;-63
2024/02/15 04:04:30;;;;;;;6.70;2.30;;;6.80;99.90;;;;;;5039736;28;20463;-63
2024/02/15 04:06:58;;;;;;;3.92;2.33;;;6.70;99.90;;;;;;5036521;28;20045;-63
2024/02/15 04:09:25;;;;;;;5.90;2.25;;;6.70;99.90;;;;;;5040596;28;20041;-63
2024/02/15 04:11:52;;;;;;;4.80;1.50;;;6.70;99.90;;;;;;5040488;28;20049;-63
2024/02/15 04:14:20;;;;;;;5.03;1.98;;;6.60;99.90;;;;;;5044351;28;20044;-63
2024/02/15 04:16:47;;;;;;;4.03;1.90;;;6.60;99.90;;;;;;5041045;28;20061;-63
2024/02/15 04:19:15;;;;;;;3.53;1.65;;;6.50;99.90;;;;;;5046097;28;20052;-63
2024/02/15 04:21:43;;;;;;;3.78;1.50;;;6.40;99.90;;;;;;5044252;28;20048;-63
2024/02/15 04:24:10;;;;;;;3.60;1.70;;;6.40;99.90;;;;;;5041858;28;20046;-63
2024/02/15 04:26:38;;;;;;;4.32;1.90;;;6.40;99.90;;;;;;5017092;28;20125;-63
2024/02/15 04:29:05;;;;;;;7.80;1.92;;;6.40;99.90;;;;;;5038403;28;20090;-63
2024/02/15 04:31:38;;;;;;;2.10;1.25;;;6.40;99.90;;;;;;5044301;28;20052;-64
2024/02/15 04:34:06;;;;;;;5.15;1.25;;;6.30;99.90;;;;;;5034566;28;20106;-63
2024/02/15 04:36:34;;;;;;;7.20;1.38;;;6.30;99.90;;;;;;5034599;28;20052;-63
2024/02/15 04:39:02;;;;;;;1.98;1.20;;;6.20;99.90;;;;;;5031804;28;20049;-63
2024/02/15 04:41:29;;;;;;;3.70;1.10;;;6.20;99.90;;;;;;5032034;28;20045;-63
2024/02/15 04:43:56;;;;;;;2.38;1.40;;;6.20;99.90;;;;;;5038917;28;20131;-63
2024/02/15 04:46:24;;;;;;;2.45;1.50;;;6.20;99.90;;;;;;5043711;28;20417;-63
2024/02/15 04:48:51;;;;;;;5.88;1.83;;;6.10;99.90;;;;;;5038022;28;20102;-63
2024/02/15 04:51:19;;;;;;;7.03;1.42;;;6.20;99.90;;;;;;5043253;28;20449;-63
2024/02/15 04:53:46;;;;;;;4.38;1.45;;;6.20;99.90;;;;;;5039034;28;20057;-64
2024/02/15 04:56:13;;;;;;;3.75;1.42;;;6.20;99.90;;;;;;5040796;28;20046;-63
2024/02/15 04:58:47;;;;;;;4.55;1.40;;;6.20;99.90;;;;;;5040855;28;20104;-63
2024/02/15 05:01:15;;;;;;;2.25;1.00;;;6.20;99.90;;;;;;5039964;28;20327;-63
2024/02/15 05:03:46;;;;;;;4.30;1.40;;;6.20;99.90;;;;;;5040933;28;20502;-63
2024/02/15 05:06:13;;;;;;;6.28;1.77;;;6.20;99.90;;;;;;5043198;28;20069;-63
2024/02/15 05:08:43;;;;;;;5.93;1.20;;;6.20;99.90;;;;;;5039371;28;20060;-63
2024/02/15 05:11:15;;;;;;;2.58;1.08;;;6.20;99.90;;;;;;5040550;28;20140;-62
2024/02/15 05:13:42;;;;;;;5.97;1.38;;;6.20;99.90;;;;;;5044248;28;20045;-64
2024/02/15 05:16:08;;;;;;;1.77;1.10;;;6.20;99.90;;;;;;5053823;28;20098;-64
2024/02/15 05:18:35;;;;;;;3.38;1.10;;;6.20;99.90;;;;;;5027629;28;20044;-64
2024/02/15 05:21:03;;;;;;;2.42;1.77;;;6.20;99.90;;;;;;5039097;28;20095;-64
2024/02/15 05:23:30;;;;;;;6.70;1.58;;;6.20;99.90;;;;;;5038957;28;20084;-64
2024/02/15 05:25:58;;;;;;;5.93;1.70;;;6.20;99.90;;;;;;5042153;28;20413;-64
2024/02/15 05:28:26;;;;;;;6.40;2.28;;;6.20;99.90;;;;;;5045045;28;20044;-64
2024/02/15 05:31:12;;;;;;;3.30;1.75;;;6.30;99.90;;;;;;5039189;28;20049;-64
2024/02/15 05:33:43;;;;;;;4.18;1.48;;;6.30;99.90;;;;;;5043810;28;20037;-64
2024/02/15 05:36:11;;;;;;;9.13;1.80;;;6.30;99.90;;;;;;5038541;28;20057;-64
2024/02/15 05:38:39;;;;;;;2.38;1.55;;;6.30;99.90;;;;;;5042239;28;20056;-64
2024/02/15 05:41:07;;;;;;;5.75;1.40;;;6.30;99.90;;;;;;5047422;28;20123;-64
2024/02/15 05:43:36;;;;;;;6.53;2.38;;;6.30;99.90;;;;;;5045618;28;20516;-64
2024/02/15 05:46:04;;;;;;;3.20;1.33;;;6.20;99.90;;;;;;5045142;28;20037;-64
2024/02/15 05:48:31;;;;;;;3.47;1.40;;;6.20;99.90;;;;;;5045497;28;20485;-64
2024/02/15 05:50:59;;;;;;;2.45;1.60;;;6.20;99.90;;;;;;5040521;28;20049;-64
2024/02/15 05:53:26;;;;;;;4.45;1.73;;;6.20;99.90;;;;;;5035143;28;20067;-64
2024/02/15 05:55:53;;;;;;;7.10;1.75;;;6.20;99.90;;;;;;5040912;28;20053;-64
2024/02/15 05:58:20;;;;;;;7.65;2.42;;;6.20;99.90;;;;;;5043738;28;20044;-64
2024/02/15 06:00:49;;;;;;;8.70;3.47;;;6.10;99.90;;;;;;5046400;28;20045;-64
2024/02/15 06:03:16;;;;;;;4.50;2.92;;;6.20;99.90;;;;;;5042193;28;20051;-64
2024/02/15 06:05:44;;;;;;;3.78;2.60;;;6.20;99.90;;;;;;5033797;28;20472;-64
2024/02/15 06:08:12;;;;;;;4.95;2.53;;;6.30;99.90;;;;;;5032201;28;20893;-64
2024/02/15 06:10:40;;;;;;;7.57;2.75;;;6.30;99.90;;;;;;5035762;28;20053;-64
2024/02/15 06:13:09;;;;;;;8.77;6.28;;;6.40;99.90;;;;;;5041957;28;20076;-64
2024/02/15 06:15:36;;;;;;;9.65;7.22;;;6.50;99.90;;;;;;5034054;28;20436;-64
2024/02/15 06:18:08;;;;;;;13.80;8.13;;;6.50;99.90;;;;;;5030512;28;20804;-64
2024/02/15 06:20:36;;;;;;;10.98;7.45;;;6.60;99.90;;;;;;5032815;28;20056;-64
2024/02/15 06:23:05;;;;;;;9.20;6.68;;;6.70;99.90;;;;;;5032905;28;20128;-64
2024/02/15 06:25:35;;;;;;;9.25;5.22;;;6.80;99.90;;;;;;5031264;28;20080;-64
2024/02/15 06:39:42;;;;;;;12.70;6.25;;;6.70;99.90;;;;;;5046015;28;20118;-63
2024/02/15 06:42:11;;;;;;;10.35;6.57;;;6.80;99.90;;;;;;5044128;28;20061;-64
2024/02/15 06:44:40;;;;;;;12.85;7.80;;;6.80;99.90;;;;;;5046101;28;20102;-64
2024/02/15 06:47:09;;;;;;;18.40;12.40;;;6.80;99.90;;;;;;5037883;28;20084;-64
2024/02/15 06:49:42;;;;;;;13.23;10.32;;;6.80;99.90;;;;;;5045026;28;20401;-63
2024/02/15 06:52:11;;;;;;;15.40;10.13;;;6.90;99.90;;;;;;5042562;28;20717;-64
2024/02/15 06:54:41;;;;;;;14.10;7.75;;;7.00;99.90;;;;;;5045556;28;20398;-64
2024/02/15 06:57:09;;;;;;;8.50;4.82;;;7.10;99.90;;;;;;5033788;28;20060;-63
2024/02/15 06:59:37;;;;;;;8.43;3.05;;;7.10;99.90;;;;;;5041581;28;20041;-63
2024/02/15 07:02:07;;;;;;;8.18;3.65;;;7.10;99.90;;;;;;5044019;28;20780;-64
2024/02/15 07:04:36;;;;;;;4.80;3.35;;;7.10;99.90;;;;;;5043000;28;20080;-64
2024/02/15 07:07:03;;;;;;;6.38;3.90;;;7.10;99.90;;;;;;5043330;28;20296;-63
2024/02/15 07:09:31;;;;;;;10.20;4.70;;;7.20;99.90;;;;;;5035526;28;20192;-62
2024/02/15 07:11:58;;;;;;;8.60;4.97;;;7.20;99.90;;;;;;5041360;28;20053;-63
2024/02/15 07:14:27;;;;;;;11.32;5.50;;;7.20;99.90;;;;;;5045379;28;20539;-63
2024/02/15 07:16:57;;;;;;;9.60;4.43;;;7.30;99.90;;;;;;5044053;28;20101;-63
2024/02/15 07:19:26;;;;;;;12.10;6.22;;;7.40;99.90;;;;;;5043520;28;20045;-63
2024/02/15 07:21:55;;;;;;;9.02;4.78;;;7.50;99.90;;;;;;5044972;28;20433;-63
2024/02/15 07:24:21;;;;;;;14.55;6.20;;;7.60;99.90;;;;;;5043082;28;20835;-63
2024/02/15 07:26:48;;;;;;;7.85;5.65;;;7.70;99.90;;;;;;5044254;28;20099;-63
2024/02/15 07:29:15;;;;;;;13.00;7.95;;;7.80;99.90;;;;;;5038676;28;20118;-63
2024/02/15 07:31:42;;;;;;;15.40;8.45;;;7.90;99.90;;;;;;5038013;28;20441;-63
2024/02/15 07:34:10;;;;;;;17.73;9.00;;;7.90;99.90;;;;;;5043590;28;20083;-63
2024/02/15 07:36:39;;;;;;;16.40;9.77;;;8.00;99.90;;;;;;5040704;28;20045;-62
2024/02/15 07:39:05;;;;;;;23.10;13.65;;;8.00;99.90;;;;;;5039077;28;20045;-62
2024/02/15 07:41:32;;;;;;;39.92;23.27;;;8.00;99.90;;;;;;5043580;28;20110;-63
2024/02/15 07:44:01;;;;;;;34.70;18.65;;;8.10;99.90;;;;;;5043456;28;20042;-62
2024/02/15 07:46:28;;;;;;;30.85;17.02;;;8.10;99.90;;;;;;5042213;28;20045;-63
2024/02/15 07:48:56;;;;;;;33.00;17.33;;;8.10;99.90;;;;;;5039043;28;20046;-63
2024/02/15 07:51:23;;;;;;;24.00;14.43;;;8.20;99.90;;;;;;5041797;28;20056;-63
2024/02/15 07:53:52;;;;;;;19.92;11.20;;;8.20;99.90;;;;;;5043781;28;20602;-62
2024/02/15 07:56:19;;;;;;;22.83;11.75;;;8.30;99.90;;;;;;5043039;28;20045;-63
2024/02/15 07:58:51;;;;;;;20.50;11.38;;;8.30;99.90;;;;;;5040208;28;20505;-62
2024/02/15 08:01:23;;;;;;;9.63;7.75;;;8.40;99.90;;;;;;5042463;28;20077;-62
2024/02/15 08:03:52;;;;;;;12.95;7.35;;;8.40;99.90;;;;;;5041410;28;20049;-62
2024/02/15 08:06:23;;;;;;;12.18;6.35;;;8.40;99.90;;;;;;5035577;28;20045;-63
2024/02/15 08:08:52;;;;;;;8.52;5.78;;;8.30;99.90;;;;;;5041316;28;20041;-63
2024/02/15 08:11:19;;;;;;;11.02;6.65;;;8.30;99.90;;;;;;5040332;28;20099;-63
2024/02/15 08:13:49;;;;;;;9.27;7.07;;;8.50;99.90;;;;;;5036977;28;20045;-63
2024/02/15 08:16:16;;;;;;;;;;;8.60;99.90;;;;;;5042634;28;20049;-63
2024/02/15 08:18:43;;;;;;;8.95;6.00;;;8.50;99.90;;;;;;5045703;28;20304;-63
2024/02/15 08:21:10;;;;;;;8.70;5.88;;;8.60;99.90;;;;;;5040234;28;20041;-62
2024/02/15 08:23:38;;;;;;;8.75;6.07;;;8.70;99.90;;;;;;5043597;28;20041;-62
2024/02/15 08:26:05;;;;;;;13.68;6.05;;;8.80;99.90;;;;;;5037309;28;20053;-63
2024/02/15 08:28:32;;;;;;;7.22;5.10;;;8.80;99.90;;;;;;5040960;28;20041;-62
2024/02/15 08:30:59;;;;;;;12.43;6.00;;;8.80;99.90;;;;;;5036684;28;20076;-63
2024/02/15 08:33:28;;;;;;;7.20;5.80;;;8.70;99.90;;;;;;5042934;28;20056;-63
2024/02/15 08:35:55;;;;;;;10.55;6.05;;;8.70;99.90;;;;;;5039580;28;20486;-62
2024/02/15 08:38:23;;;;;;;7.60;5.28;;;8.70;99.90;;;;;;5041216;28;20078;-62
2024/02/15 08:40:50;;;;;;;19.77;7.43;;;8.80;99.90;;;;;;5042390;28;20045;-62
2024/02/15 08:43:16;;;;;;;9.10;6.88;;;8.80;99.90;;;;;;5038424;28;20379;-62
2024/02/15 08:45:43;;;;;;;10.73;6.90;;;9.00;99.90;;;;;;5040732;28;20041;-62
2024/02/15 08:48:11;;;;;;;10.68;7.63;;;9.00;99.90;;;;;;5039175;28;20521;-62
2024/02/15 08:50:39;;;;;;;10.65;7.00;;;9.00;99.90;;;;;;5043532;28;20531;-63
2024/02/15 08:55:56;;;;;;;9.32;7.15;;;9.00;99.90;;;;;;4911157;23;20074;-66
2024/02/15 08:58:22;;;;;;;9.00;7.35;;;9.20;99.90;;;;;;4902666;29;20063;-66
2024/02/15 09:00:49;;;;;;;13.57;7.43;;;9.30;99.90;;;;;;4903525;29;20095;-66
2024/02/15 09:03:18;;;;;;;10.50;7.28;;;9.40;99.90;;;;;;4903984;29;20602;-66
2024/02/15 09:05:45;;;;;;;11.98;7.45;;;9.50;99.90;;;;;;4901576;29;20052;-66
2024/02/15 09:08:12;;;;;;;10.35;7.63;;;9.70;99.90;;;;;;4900627;29;20131;-66
2024/02/15 09:10:39;;;;;;;13.18;7.43;;;10.00;99.90;;;;;;4904812;29;20080;-66
2024/02/15 09:13:06;;;;;;;12.10;6.05;;;10.10;99.90;;;;;;4902847;29;20052;-66
2024/02/15 09:15:33;;;;;;;9.55;6.78;;;10.30;99.90;;;;;;4907594;29;20561;-66
2024/02/15 09:18:00;;;;;;;12.38;7.18;;;10.40;99.90;;;;;;4904951;29;20056;-66
2024/02/15 09:20:31;;;;;;;10.75;6.38;;;10.50;99.90;;;;;;4898517;29;20056;-66
2024/02/15 09:22:59;;;;;;;9.45;6.55;;;10.60;99.90;;;;;;4906258;29;20531;-67
2024/02/15 09:25:26;;;;;;;7.82;6.15;;;10.70;99.90;;;;;;4910385;29;20055;-66
2024/02/15 09:27:56;;;;;;;10.23;6.47;;;10.90;99.90;;;;;;4906999;29;20051;-66
2024/02/15 09:30:24;;;;;;;9.80;7.00;;;11.00;99.90;;;;;;4904772;29;20497;-66
2024/02/15 09:32:51;;;;;;;9.73;7.07;;;11.00;99.90;;;;;;4906632;29;20076;-67
2024/02/15 09:35:19;;;;;;;9.43;6.70;;;11.00;99.90;;;;;;4907564;29;20131;-66
2024/02/15 09:37:48;;;;;;;8.43;6.50;;;11.00;99.90;;;;;;4902774;29;20071;-66
2024/02/15 09:40:17;;;;;;;9.80;6.72;;;11.10;99.90;;;;;;4907765;29;20059;-66
2024/02/15 09:42:45;;;;;;;9.02;6.82;;;11.20;99.90;;;;;;4906793;29;20046;-66
2024/02/15 09:45:14;;;;;;;10.45;6.50;;;11.30;99.90;;;;;;4903237;29;20048;-66
2024/02/15 09:47:43;;;;;;;14.80;5.93;;;11.40;99.90;;;;;;4903971;29;20052;-66
2024/02/15 09:50:14;;;;;;;8.32;5.57;;;11.30;99.90;;;;;;4905985;29;20074;-66
2024/02/15 09:52:51;;;;;;;10.05;6.03;;;11.30;99.90;;;;;;4900885;29;20061;-66
2024/02/15 09:55:19;;;;;;;10.77;6.13;;;11.40;99.90;;;;;;4904006;29;20156;-66
2024/02/15 09:57:46;;;;;;;9.55;6.00;;;11.40;99.90;;;;;;4907648;29;20505;-66
2024/02/15 10:00:15;;;;;;;18.05;6.35;;;11.40;99.90;;;;;;4903669;29;20056;-66
2024/02/15 10:02:46;;;;;;;9.55;6.22;;;11.50;99.90;;;;;;4907881;29;20048;-66
2024/02/15 10:05:13;;;;;;;13.00;7.38;;;11.40;99.90;;;;;;4903348;29;20052;-66
2024/02/15 10:07:44;;;;;;;10.98;7.35;;;11.40;99.90;;;;;;4904660;29;20056;-66
2024/02/15 10:10:21;;;;;;;9.52;6.10;;;11.50;99.90;;;;;;4906562;29;20108;-66
2024/02/15 10:12:51;;;;;;;9.20;5.63;;;11.50;99.90;;;;;;4904621;29;20048;-66
2024/02/15 10:15:35;;;;;;;7.55;5.60;;;11.60;99.90;;;;;;4907364;29;20055;-66
2024/02/15 10:18:07;;;;;;;6.95;5.60;;;11.60;99.90;;;;;;4907212;29;20056;-66
2024/02/15 10:20:37;;;;;;;12.30;5.70;;;11.70;99.90;;;;;;4902411;29;20048;-66
2024/02/15 10:23:08;;;;;;;11.30;5.73;;;11.70;99.90;;;;;;4906925;29;20066;-66
2024/02/15 10:25:40;;;;;;;8.85;6.00;;;11.80;99.90;;;;;;4907018;29;20292;-66
2024/02/15 10:28:08;;;;;;;7.63;5.28;;;11.80;99.90;;;;;;4900531;29;20505;-66
2024/02/15 10:30:43;;;;;;;12.07;5.82;;;11.90;99.90;;;;;;4903848;29;20498;-66
2024/02/15 10:33:19;;;;;;;9.48;5.93;;;12.00;99.90;;;;;;4901468;29;20052;-66
2024/02/15 10:35:46;;;;;;;8.90;5.93;;;12.10;99.90;;;;;;4887912;29;20106;-66
2024/02/15 10:38:15;;;;;;;7.40;4.75;;;12.20;99.90;;;;;;4902875;29;20053;-66
2024/02/15 10:40:46;;;;;;;8.43;4.93;;;12.20;99.90;;;;;;4905530;29;20496;-65
2024/02/15 10:43:16;;;;;;;7.88;4.88;;;12.20;99.90;;;;;;4907860;29;20048;-66
2024/02/15 10:45:44;;;;;;;5.45;4.20;;;12.30;99.90;;;;;;4901281;29;20056;-66
2024/02/15 10:48:13;;;;;;;13.63;5.38;;;12.30;99.90;;;;;;4905552;29;20469;-66
2024/02/15 10:50:41;;;;;;;9.48;5.25;;;12.40;99.90;;;;;;4907072;29;20590;-66
2024/02/15 10:53:31;;;;;;;8.88;4.65;;;12.40;99.90;;;;;;4902424;29;20118;-66
2024/02/15 10:56:06;;;;;;;8.02;4.57;;;12.30;99.90;;;;;;4902760;29;20052;-66
2024/02/15 10:58:38;;;;;;;10.38;4.05;;;12.40;99.90;;;;;;4907017;29;20087;-66
2024/02/15 11:01:08;;;;;;;8.82;4.82;;;12.40;99.90;;;;;;4903684;29;20044;-66
2024/02/15 11:03:36;;;;;;;;;;;12.40;99.90;;;;;;4904579;29;20059;-66
2024/02/15 11:06:06;;;;;;;7.93;5.07;;;12.40;99.90;;;;;;4896623;29;19925;-66
2024/02/15 11:08:34;;;;;;;6.57;4.22;;;12.40;99.90;;;;;;4902434;29;20056;-66
2024/02/15 11:11:04;;;;;;;7.00;4.82;;;12.50;99.90;;;;;;4908384;29;20048;-66
2024/02/15 11:13:31;;;;;;;;;;;12.60;99.90;;;;;;4900444;29;20063;-66
2024/02/15 11:15:58;;;;;;;9.02;5.25;;;12.70;99.90;;;;;;4904892;29;19923;-66
2024/02/15 11:18:48;;;;;;;7.38;4.50;;;12.60;99.90;;;;;;4908926;29;20063;-66
2024/02/15 11:21:17;;;;;;;7.43;4.38;;;12.60;99.90;;;;;;4900441;29;20100;-66
2024/02/15 11:23:44;;;;;;;6.68;4.28;;;12.70;99.90;;;;;;4906367;29;20048;-66
2024/02/15 11:26:49;;;;;;;10.30;4.68;;;12.80;99.90;;;;;;4904043;29;20048;-66
2024/02/15 11:29:55;;;;;;;7.65;4.60;;;12.90;99.90;;;;;;4899005;29;20056;-66
2024/02/15 11:32:47;;;;;;;7.82;4.60;;;12.60;99.90;;;;;;4902670;29;20066;-65
2024/02/15 11:35:20;;;;;;;9.30;4.95;;;12.60;99.90;;;;;;4904734;29;20055;-65
2024/02/15 11:37:55;;;;;;;6.15;4.90;;;12.70;99.90;;;;;;4896112;29;20139;-65
2024/02/15 11:40:41;;;;;;;11.68;4.65;;;12.80;99.90;;;;;;4898966;29;20075;-65
2024/02/15 11:43:10;;;;;;;7.63;3.85;;;13.00;99.90;;;;;;4898959;29;20518;-66
2024/02/15 11:45:43;;;;;;;9.13;4.60;;;13.00;99.90;;;;;;4902207;29;20136;-66
2024/02/15 11:48:11;;;;;;;8.45;4.55;;;13.00;99.90;;;;;;4902066;29;20566;-66
2024/02/15 11:50:39;;;;;;;6.72;4.07;;;13.10;99.90;;;;;;4881720;29;20060;-66
2024/02/15 11:53:10;;;;;;;8.95;4.07;;;13.20;99.90;;;;;;4897186;29;20052;-66
2024/02/15 11:55:40;;;;;;;8.68;3.70;;;13.30;99.90;;;;;;4897636;29;20051;-66
2024/02/15 12:20:24;;;;;;;6.70;3.97;;;13.70;99.90;;;;;;4895294;29;20048;-66
2024/02/15 12:22:52;;;;;;;7.18;3.47;;;13.70;99.90;;;;;;4899041;29;20061;-66
2024/02/15 12:25:21;;;;;;;5.57;2.42;;;13.80;99.90;;;;;;4902917;29;20055;-66
2024/02/15 12:27:59;;;;;;;6.78;2.90;;;13.80;99.90;;;;;;4899293;29;20056;-66
2024/02/15 12:30:33;;;;;;;5.95;2.72;;;13.80;99.90;;;;;;4901943;29;20056;-66
2024/02/15 12:33:19;;;;;;;7.90;2.92;;;13.90;99.90;;;;;;4899414;29;20142;-66
2024/02/15 12:35:46;;;;;;;11.32;3.58;;;13.90;99.90;;;;;;4901351;29;20162;-67
2024/02/15 12:38:16;;;;;;;7.20;3.20;;;14.00;99.90;;;;;;4904984;29;20056;-66
2024/02/15 12:40:44;;;;;;;6.85;3.10;;;14.00;99.90;;;;;;4900478;29;20058;-67
2024/02/15 12:43:13;;;;;;;6.07;3.40;;;14.00;99.90;;;;;;4906181;29;20060;-67
2024/02/15 12:45:41;;;;;;;9.45;3.65;;;13.90;99.90;;;;;;4900049;29;20052;-67
2024/02/15 12:48:09;;;;;;;12.90;4.57;;;13.90;99.90;;;;;;4904487;29;20084;-66
2024/02/15 12:50:36;;;;;;;8.15;4.18;;;14.00;99.90;;;;;;4907592;29;20048;-67
2024/02/15 12:53:03;;;;;;;6.13;2.92;;;14.20;99.90;;;;;;4904402;29;20048;-66
2024/02/15 12:55:34;;;;;;;4.90;2.70;;;14.20;99.90;;;;;;4906190;29;20052;-66
2024/02/15 12:58:08;;;;;;;5.88;2.60;;;14.10;99.90;;;;;;4900941;29;20045;-67
2024/02/15 13:00:38;;;;;;;4.90;2.65;;;14.20;99.90;;;;;;4908418;29;20067;-66
2024/02/15 13:03:09;;;;;;;;;;;14.30;99.90;;;;;;4902226;29;20191;-66
2024/02/15 13:05:37;;;;;;;9.93;2.83;;;14.30;99.90;;;;;;4902445;29;20277;-66
2024/02/15 13:08:09;;;;;;;6.55;2.88;;;14.30;99.90;;;;;;4905564;29;20055;-66
2024/02/15 13:10:38;;;;;;;4.13;2.33;;;14.30;99.90;;;;;;4905850;29;20070;-66
2024/02/15 13:13:06;;;;;;;5.63;2.60;;;14.10;99.90;;;;;;4901731;29;20052;-66
2024/02/15 13:15:33;;;;;;;4.85;2.20;;;14.00;99.90;;;;;;4900753;29;20056;-66
2024/02/15 13:18:04;;;;;;;8.85;3.10;;;14.20;99.90;;;;;;4906324;29;20071;-66
2024/02/15 13:20:32;;;;;;;12.65;3.38;;;14.20;99.90;;;;;;4902887;29;20494;-66
2024/02/15 13:23:25;;;;;;;8.05;2.83;;;14.20;99.90;;;;;;4903460;29;20049;-66
2024/02/15 13:25:52;;;;;;;5.43;2.28;;;14.20;99.90;;;;;;4905888;29;20052;-66
2024/02/15 13:28:19;;;;;;;6.05;1.70;;;14.30;99.90;;;;;;4902353;29;20109;-66
2024/02/15 13:30:49;;;;;;;3.28;2.13;;;14.30;99.90;;;;;;4905582;29;20062;-66
2024/02/15 13:33:16;;;;;;;3.10;1.52;;;14.30;99.90;;;;;;4903260;29;20300;-66
2024/02/15 13:35:43;;;;;;;2.13;1.60;;;14.30;99.90;;;;;;4903663;29;20152;-66
2024/02/15 13:38:14;;;;;;;8.07;2.38;;;14.30;99.90;;;;;;4899906;29;20056;-66